sensor_id;sensor_type;location;lat;lon;timestamp;P1;durP1;ratioP1;P2;durP2;ratioP2
48040;SDS011;33815;48.386;11.738;2022-10-16T00:00:26;2.23;;;1.80;;
48040;SDS011;33815;48.386;11.738;2022-10-16T00:02:52;2.50;;;2.30;;
48040;SDS011;33815;48.386;11.738;2022-10-16T00:05:17;3.55;;;2.80;;
48040;SDS011;33815;48.386;11.738;2022-10-16T00:07:42;4.07;;;1.98;;
48040;SDS011;33815;48.386;11.738;2022-10-16T00:10:08;2.15;;;1.95;;
48040;SDS011;33815;48.386;11.738;2022-10-16T00:12:33;3.05;;;1.98;;
48040;SDS011;33815;48.386;11.738;2022-10-16T00:14:58;4.77;;;2.30;;
48040;SDS011;33815;48.386;11.738;2022-10-16T00:17:23;3.33;;;2.80;;
48040;SDS011;33815;48.386;11.738;2022-10-16T00:19:49;2.50;;;2.30;;
48040;SDS011;33815;48.386;11.738;2022-10-16T00:22:14;3.25;;;2.28;;
48040;SDS011;33815;48.386;11.738;2022-10-16T00:24:39;1.95;;;1.85;;
48040;SDS011;33815;48.386;11.738;2022-10-16T00:27:04;3.67;;;2.00;;
48040;SDS011;33815;48.386;11.738;2022-10-16T00:29:30;4.27;;;2.30;;
48040;SDS011;33815;48.386;11.738;2022-10-16T00:31:55;4.03;;;2.13;;
48040;SDS011;33815;48.386;11.738;2022-10-16T00:34:20;2.67;;;2.15;;
48040;SDS011;33815;48.386;11.738;2022-10-16T00:36:46;6.60;;;2.50;;
48040;SDS011;33815;48.386;11.738;2022-10-16T00:39:11;2.85;;;2.40;;
48040;SDS011;33815;48.386;11.738;2022-10-16T00:41:37;2.30;;;2.10;;
48040;SDS011;33815;48.386;11.738;2022-10-16T00:44:03;2.33;;;2.13;;
48040;SDS011;33815;48.386;11.738;2022-10-16T00:46:48;2.80;;;2.20;;
48040;SDS011;33815;48.386;11.738;2022-10-16T00:49:16;4.75;;;2.83;;
48040;SDS011;33815;48.386;11.738;2022-10-16T00:51:45;3.35;;;2.95;;
48040;SDS011;33815;48.386;11.738;2022-10-16T00:54:13;3.17;;;2.60;;
48040;SDS011;33815;48.386;11.738;2022-10-16T00:56:41;6.13;;;3.55;;
48040;SDS011;33815;48.386;11.738;2022-10-16T00:59:14;2.80;;;2.50;;
48040;SDS011;33815;48.386;11.738;2022-10-16T01:01:42;3.33;;;2.40;;
48040;SDS011;33815;48.386;11.738;2022-10-16T01:04:08;6.03;;;3.08;;
48040;SDS011;33815;48.386;11.738;2022-10-16T01:06:39;7.30;;;4.35;;
48040;SDS011;33815;48.386;11.738;2022-10-16T01:09:17;4.72;;;3.42;;
48040;SDS011;33815;48.386;11.738;2022-10-16T01:14:32;4.88;;;3.22;;
48040;SDS011;33815;48.386;11.738;2022-10-16T01:17:03;2.92;;;2.63;;
48040;SDS011;33815;48.386;11.738;2022-10-16T01:19:44;7.07;;;3.10;;
48040;SDS011;33815;48.386;11.738;2022-10-16T01:22:17;2.85;;;2.65;;
48040;SDS011;33815;48.386;11.738;2022-10-16T01:24:48;3.25;;;2.95;;
48040;SDS011;33815;48.386;11.738;2022-10-16T01:27:15;3.65;;;3.15;;
48040;SDS011;33815;48.386;11.738;2022-10-16T01:35:05;3.83;;;3.28;;
48040;SDS011;33815;48.386;11.738;2022-10-16T01:37:46;2.50;;;2.25;;
48040;SDS011;33815;48.386;11.738;2022-10-16T01:40:17;3.05;;;2.75;;
48040;SDS011;33815;48.386;11.738;2022-10-16T01:42:50;5.07;;;2.55;;
48040;SDS011;33815;48.386;11.738;2022-10-16T01:45:21;2.92;;;2.10;;
48040;SDS011;33815;48.386;11.738;2022-10-16T01:47:46;4.15;;;2.58;;
48040;SDS011;33815;48.386;11.738;2022-10-16T01:50:14;4.32;;;3.25;;
48040;SDS011;33815;48.386;11.738;2022-10-16T01:52:43;3.83;;;2.53;;
48040;SDS011;33815;48.386;11.738;2022-10-16T01:55:12;8.05;;;2.78;;
48040;SDS011;33815;48.386;11.738;2022-10-16T01:57:44;6.18;;;2.85;;
48040;SDS011;33815;48.386;11.738;2022-10-16T02:00:14;3.20;;;2.90;;
48040;SDS011;33815;48.386;11.738;2022-10-16T02:02:43;3.20;;;2.67;;
48040;SDS011;33815;48.386;11.738;2022-10-16T02:05:14;3.58;;;3.03;;
48040;SDS011;33815;48.386;11.738;2022-10-16T02:07:50;2.58;;;2.38;;
48040;SDS011;33815;48.386;11.738;2022-10-16T02:10:16;3.38;;;2.63;;
48040;SDS011;33815;48.386;11.738;2022-10-16T02:12:44;5.25;;;2.72;;
48040;SDS011;33815;48.386;11.738;2022-10-16T02:15:14;2.42;;;2.22;;
48040;SDS011;33815;48.386;11.738;2022-10-16T02:17:40;3.72;;;2.85;;
48040;SDS011;33815;48.386;11.738;2022-10-16T02:20:05;3.75;;;3.05;;
48040;SDS011;33815;48.386;11.738;2022-10-16T02:22:35;3.78;;;3.28;;
48040;SDS011;33815;48.386;11.738;2022-10-16T02:25:22;7.72;;;3.13;;
48040;SDS011;33815;48.386;11.738;2022-10-16T02:28:08;5.47;;;2.90;;
48040;SDS011;33815;48.386;11.738;2022-10-16T02:30:45;3.58;;;2.72;;
48040;SDS011;33815;48.386;11.738;2022-10-16T02:33:15;3.63;;;2.78;;
48040;SDS011;33815;48.386;11.738;2022-10-16T02:35:43;4.57;;;2.67;;
48040;SDS011;33815;48.386;11.738;2022-10-16T02:38:10;3.45;;;3.03;;
48040;SDS011;33815;48.386;11.738;2022-10-16T02:40:36;6.63;;;3.15;;
48040;SDS011;33815;48.386;11.738;2022-10-16T02:43:03;4.53;;;3.45;;
48040;SDS011;33815;48.386;11.738;2022-10-16T02:45:29;2.67;;;2.47;;
48040;SDS011;33815;48.386;11.738;2022-10-16T02:47:54;2.78;;;2.58;;
48040;SDS011;33815;48.386;11.738;2022-10-16T02:50:20;3.85;;;3.25;;
48040;SDS011;33815;48.386;11.738;2022-10-16T02:52:45;2.97;;;2.60;;
48040;SDS011;33815;48.386;11.738;2022-10-16T02:55:10;2.50;;;2.30;;
48040;SDS011;33815;48.386;11.738;2022-10-16T02:57:36;2.95;;;2.70;;
48040;SDS011;33815;48.386;11.738;2022-10-16T03:00:03;3.55;;;3.25;;
48040;SDS011;33815;48.386;11.738;2022-10-16T03:02:30;2.15;;;2.05;;
48040;SDS011;33815;48.386;11.738;2022-10-16T03:04:55;2.70;;;2.50;;
48040;SDS011;33815;48.386;11.738;2022-10-16T03:07:20;4.20;;;2.65;;
48040;SDS011;33815;48.386;11.738;2022-10-16T03:09:45;3.92;;;2.75;;
48040;SDS011;33815;48.386;11.738;2022-10-16T03:12:11;6.00;;;2.67;;
48040;SDS011;33815;48.386;11.738;2022-10-16T03:14:37;7.30;;;2.58;;
48040;SDS011;33815;48.386;11.738;2022-10-16T03:17:02;2.53;;;2.33;;
48040;SDS011;33815;48.386;11.738;2022-10-16T03:19:27;3.97;;;2.38;;
48040;SDS011;33815;48.386;11.738;2022-10-16T03:21:53;2.10;;;2.00;;
48040;SDS011;33815;48.386;11.738;2022-10-16T03:24:18;2.85;;;2.38;;
48040;SDS011;33815;48.386;11.738;2022-10-16T03:26:43;3.87;;;2.60;;
48040;SDS011;33815;48.386;11.738;2022-10-16T03:29:08;5.93;;;2.63;;
48040;SDS011;33815;48.386;11.738;2022-10-16T03:31:34;2.67;;;2.42;;
48040;SDS011;33815;48.386;11.738;2022-10-16T03:33:59;2.90;;;2.17;;
48040;SDS011;33815;48.386;11.738;2022-10-16T03:36:24;4.80;;;4.30;;
48040;SDS011;33815;48.386;11.738;2022-10-16T03:38:50;3.90;;;2.63;;
48040;SDS011;33815;48.386;11.738;2022-10-16T03:41:15;2.63;;;2.42;;
48040;SDS011;33815;48.386;11.738;2022-10-16T03:43:40;3.42;;;2.35;;
48040;SDS011;33815;48.386;11.738;2022-10-16T03:46:06;3.10;;;2.38;;
48040;SDS011;33815;48.386;11.738;2022-10-16T03:48:31;3.72;;;2.90;;
48040;SDS011;33815;48.386;11.738;2022-10-16T03:50:57;3.92;;;2.67;;
48040;SDS011;33815;48.386;11.738;2022-10-16T03:53:23;3.63;;;3.30;;
48040;SDS011;33815;48.386;11.738;2022-10-16T03:55:48;3.40;;;2.63;;
48040;SDS011;33815;48.386;11.738;2022-10-16T03:58:13;3.13;;;2.50;;
48040;SDS011;33815;48.386;11.738;2022-10-16T04:00:42;3.22;;;2.28;;
48040;SDS011;33815;48.386;11.738;2022-10-16T04:03:08;3.63;;;2.30;;
48040;SDS011;33815;48.386;11.738;2022-10-16T04:05:34;3.08;;;2.75;;
48040;SDS011;33815;48.386;11.738;2022-10-16T04:07:59;6.05;;;2.83;;
48040;SDS011;33815;48.386;11.738;2022-10-16T04:10:25;3.22;;;2.92;;
48040;SDS011;33815;48.386;11.738;2022-10-16T04:12:50;2.50;;;2.30;;
48040;SDS011;33815;48.386;11.738;2022-10-16T04:15:15;3.03;;;2.78;;
48040;SDS011;33815;48.386;11.738;2022-10-16T04:17:40;2.85;;;2.55;;
48040;SDS011;33815;48.386;11.738;2022-10-16T04:20:06;3.47;;;2.80;;
48040;SDS011;33815;48.386;11.738;2022-10-16T04:22:31;6.05;;;2.28;;
48040;SDS011;33815;48.386;11.738;2022-10-16T04:24:57;3.47;;;3.08;;
48040;SDS011;33815;48.386;11.738;2022-10-16T04:27:22;2.70;;;2.50;;
48040;SDS011;33815;48.386;11.738;2022-10-16T04:29:47;2.45;;;2.25;;
48040;SDS011;33815;48.386;11.738;2022-10-16T04:32:12;3.90;;;2.53;;
48040;SDS011;33815;48.386;11.738;2022-10-16T04:34:38;3.40;;;2.30;;
48040;SDS011;33815;48.386;11.738;2022-10-16T04:37:04;2.47;;;2.28;;
48040;SDS011;33815;48.386;11.738;2022-10-16T04:39:30;3.15;;;2.63;;
48040;SDS011;33815;48.386;11.738;2022-10-16T04:41:55;2.85;;;2.53;;
48040;SDS011;33815;48.386;11.738;2022-10-16T04:44:20;3.17;;;2.33;;
48040;SDS011;33815;48.386;11.738;2022-10-16T04:46:45;5.05;;;2.50;;
48040;SDS011;33815;48.386;11.738;2022-10-16T04:49:11;7.22;;;2.75;;
48040;SDS011;33815;48.386;11.738;2022-10-16T04:51:36;5.05;;;2.90;;
48040;SDS011;33815;48.386;11.738;2022-10-16T04:54:01;3.03;;;2.40;;
48040;SDS011;33815;48.386;11.738;2022-10-16T04:56:26;1.88;;;1.77;;
48040;SDS011;33815;48.386;11.738;2022-10-16T04:58:52;3.53;;;1.90;;
48040;SDS011;33815;48.386;11.738;2022-10-16T05:01:17;2.05;;;1.92;;
48040;SDS011;33815;48.386;11.738;2022-10-16T05:03:42;2.58;;;2.10;;
48040;SDS011;33815;48.386;11.738;2022-10-16T05:06:08;2.63;;;1.90;;
48040;SDS011;33815;48.386;11.738;2022-10-16T05:08:33;4.90;;;2.30;;
48040;SDS011;33815;48.386;11.738;2022-10-16T05:10:58;3.92;;;2.13;;
48040;SDS011;33815;48.386;11.738;2022-10-16T05:13:24;2.42;;;2.20;;
48040;SDS011;33815;48.386;11.738;2022-10-16T05:15:49;2.13;;;1.92;;
48040;SDS011;33815;48.386;11.738;2022-10-16T05:18:15;2.75;;;1.95;;
48040;SDS011;33815;48.386;11.738;2022-10-16T05:20:40;2.03;;;1.83;;
48040;SDS011;33815;48.386;11.738;2022-10-16T05:23:06;2.20;;;1.95;;
48040;SDS011;33815;48.386;11.738;2022-10-16T05:25:32;2.10;;;1.90;;
48040;SDS011;33815;48.386;11.738;2022-10-16T05:27:57;5.40;;;1.77;;
48040;SDS011;33815;48.386;11.738;2022-10-16T05:30:23;3.47;;;2.10;;
48040;SDS011;33815;48.386;11.738;2022-10-16T05:32:48;1.92;;;1.73;;
48040;SDS011;33815;48.386;11.738;2022-10-16T05:35:16;6.68;;;2.10;;
48040;SDS011;33815;48.386;11.738;2022-10-16T05:37:42;1.83;;;1.70;;
48040;SDS011;33815;48.386;11.738;2022-10-16T05:40:08;4.90;;;2.10;;
48040;SDS011;33815;48.386;11.738;2022-10-16T05:42:34;3.97;;;1.98;;
48040;SDS011;33815;48.386;11.738;2022-10-16T05:44:59;1.80;;;1.70;;
48040;SDS011;33815;48.386;11.738;2022-10-16T05:47:24;1.95;;;1.85;;
48040;SDS011;33815;48.386;11.738;2022-10-16T05:49:49;3.45;;;1.80;;
48040;SDS011;33815;48.386;11.738;2022-10-16T05:52:15;1.63;;;1.53;;
48040;SDS011;33815;48.386;11.738;2022-10-16T05:54:40;2.35;;;1.88;;
48040;SDS011;33815;48.386;11.738;2022-10-16T05:57:05;1.80;;;1.60;;
48040;SDS011;33815;48.386;11.738;2022-10-16T05:59:31;2.00;;;1.90;;
48040;SDS011;33815;48.386;11.738;2022-10-16T06:01:56;2.65;;;1.70;;
48040;SDS011;33815;48.386;11.738;2022-10-16T06:04:22;1.85;;;1.60;;
48040;SDS011;33815;48.386;11.738;2022-10-16T06:06:47;1.70;;;1.60;;
48040;SDS011;33815;48.386;11.738;2022-10-16T06:09:13;1.80;;;1.52;;
48040;SDS011;33815;48.386;11.738;2022-10-16T06:11:38;5.78;;;1.83;;
48040;SDS011;33815;48.386;11.738;2022-10-16T06:14:03;1.40;;;1.30;;
48040;SDS011;33815;48.386;11.738;2022-10-16T06:16:32;1.58;;;1.48;;
48040;SDS011;33815;48.386;11.738;2022-10-16T06:18:58;2.22;;;1.60;;
48040;SDS011;33815;48.386;11.738;2022-10-16T06:21:25;2.30;;;2.10;;
48040;SDS011;33815;48.386;11.738;2022-10-16T06:23:51;1.98;;;1.50;;
48040;SDS011;33815;48.386;11.738;2022-10-16T06:26:19;2.60;;;2.05;;
48040;SDS011;33815;48.386;11.738;2022-10-16T06:28:46;2.38;;;1.58;;
48040;SDS011;33815;48.386;11.738;2022-10-16T06:31:12;2.30;;;1.50;;
48040;SDS011;33815;48.386;11.738;2022-10-16T06:33:39;1.50;;;1.40;;
48040;SDS011;33815;48.386;11.738;2022-10-16T06:38:33;2.28;;;1.73;;
48040;SDS011;33815;48.386;11.738;2022-10-16T06:40:59;2.10;;;1.90;;
48040;SDS011;33815;48.386;11.738;2022-10-16T06:43:25;3.15;;;1.48;;
48040;SDS011;33815;48.386;11.738;2022-10-16T06:45:55;3.50;;;1.65;;
48040;SDS011;33815;48.386;11.738;2022-10-16T06:48:21;2.38;;;1.90;;
48040;SDS011;33815;48.386;11.738;2022-10-16T06:50:54;2.47;;;1.63;;
48040;SDS011;33815;48.386;11.738;2022-10-16T06:53:22;2.13;;;1.92;;
48040;SDS011;33815;48.386;11.738;2022-10-16T06:55:47;3.15;;;2.70;;
48040;SDS011;33815;48.386;11.738;2022-10-16T06:58:12;5.10;;;2.90;;
48040;SDS011;33815;48.386;11.738;2022-10-16T07:00:38;3.17;;;2.67;;
48040;SDS011;33815;48.386;11.738;2022-10-16T07:03:03;3.03;;;2.83;;
48040;SDS011;33815;48.386;11.738;2022-10-16T07:05:28;2.90;;;2.28;;
48040;SDS011;33815;48.386;11.738;2022-10-16T07:07:54;3.00;;;1.90;;
48040;SDS011;33815;48.386;11.738;2022-10-16T07:10:19;2.13;;;1.93;;
48040;SDS011;33815;48.386;11.738;2022-10-16T07:12:44;2.00;;;1.63;;
48040;SDS011;33815;48.386;11.738;2022-10-16T07:15:10;2.15;;;1.95;;
48040;SDS011;33815;48.386;11.738;2022-10-16T07:17:35;2.17;;;1.73;;
48040;SDS011;33815;48.386;11.738;2022-10-16T07:20:01;2.35;;;1.50;;
48040;SDS011;33815;48.386;11.738;2022-10-16T07:22:27;7.55;;;1.90;;
48040;SDS011;33815;48.386;11.738;2022-10-16T07:24:53;5.85;;;2.17;;
48040;SDS011;33815;48.386;11.738;2022-10-16T07:27:18;2.67;;;1.90;;
48040;SDS011;33815;48.386;11.738;2022-10-16T07:29:44;1.65;;;1.40;;
48040;SDS011;33815;48.386;11.738;2022-10-16T07:32:09;1.90;;;1.70;;
48040;SDS011;33815;48.386;11.738;2022-10-16T07:34:34;1.92;;;1.73;;
48040;SDS011;33815;48.386;11.738;2022-10-16T07:36:59;2.23;;;1.93;;
48040;SDS011;33815;48.386;11.738;2022-10-16T07:39:25;2.30;;;2.10;;
48040;SDS011;33815;48.386;11.738;2022-10-16T07:41:50;1.02;;;1.02;;
48040;SDS011;33815;48.386;11.738;2022-10-16T07:44:15;2.92;;;1.30;;
48040;SDS011;33815;48.386;11.738;2022-10-16T07:46:40;1.50;;;1.40;;
48040;SDS011;33815;48.386;11.738;2022-10-16T07:49:06;0.95;;;0.95;;
48040;SDS011;33815;48.386;11.738;2022-10-16T07:51:31;0.95;;;0.95;;
48040;SDS011;33815;48.386;11.738;2022-10-16T07:53:57;0.82;;;0.73;;
48040;SDS011;33815;48.386;11.738;2022-10-16T07:56:22;1.73;;;1.05;;
48040;SDS011;33815;48.386;11.738;2022-10-16T07:58:48;3.92;;;2.00;;
48040;SDS011;33815;48.386;11.738;2022-10-16T08:01:15;2.20;;;1.73;;
48040;SDS011;33815;48.386;11.738;2022-10-16T08:03:45;1.50;;;1.40;;
48040;SDS011;33815;48.386;11.738;2022-10-16T08:06:12;1.08;;;1.08;;
48040;SDS011;33815;48.386;11.738;2022-10-16T08:08:37;2.35;;;1.05;;
48040;SDS011;33815;48.386;11.738;2022-10-16T08:11:03;2.03;;;1.00;;
48040;SDS011;33815;48.386;11.738;2022-10-16T08:13:29;1.20;;;1.10;;
48040;SDS011;33815;48.386;11.738;2022-10-16T08:15:55;1.50;;;1.20;;
48040;SDS011;33815;48.386;11.738;2022-10-16T08:18:20;4.40;;;2.50;;
48040;SDS011;33815;48.386;11.738;2022-10-16T08:20:46;2.67;;;1.00;;
48040;SDS011;33815;48.386;11.738;2022-10-16T08:23:12;1.00;;;0.90;;
48040;SDS011;33815;48.386;11.738;2022-10-16T08:25:38;4.50;;;1.50;;
48040;SDS011;33815;48.386;11.738;2022-10-16T08:28:04;1.00;;;0.98;;
48040;SDS011;33815;48.386;11.738;2022-10-16T08:30:30;1.20;;;1.10;;
48040;SDS011;33815;48.386;11.738;2022-10-16T08:32:56;0.90;;;0.90;;
48040;SDS011;33815;48.386;11.738;2022-10-16T08:35:23;1.08;;;1.00;;
48040;SDS011;33815;48.386;11.738;2022-10-16T08:37:48;1.00;;;0.90;;
48040;SDS011;33815;48.386;11.738;2022-10-16T08:40:24;2.27;;;0.93;;
48040;SDS011;33815;48.386;11.738;2022-10-16T08:45:32;0.90;;;0.90;;
48040;SDS011;33815;48.386;11.738;2022-10-16T08:50:35;0.80;;;0.80;;
48040;SDS011;33815;48.386;11.738;2022-10-16T08:53:04;1.10;;;1.10;;
48040;SDS011;33815;48.386;11.738;2022-10-16T08:58:09;1.50;;;1.20;;
48040;SDS011;33815;48.386;11.738;2022-10-16T09:00:36;1.00;;;1.00;;
48040;SDS011;33815;48.386;11.738;2022-10-16T09:13:43;1.58;;;1.20;;
48040;SDS011;33815;48.386;11.738;2022-10-16T09:16:38;0.80;;;0.80;;
48040;SDS011;33815;48.386;11.738;2022-10-16T09:19:21;2.13;;;1.08;;
48040;SDS011;33815;48.386;11.738;2022-10-16T09:21:52;0.98;;;0.90;;
48040;SDS011;33815;48.386;11.738;2022-10-16T09:24:19;1.23;;;1.10;;
48040;SDS011;33815;48.386;11.738;2022-10-16T09:26:46;2.58;;;0.90;;
48040;SDS011;33815;48.386;11.738;2022-10-16T09:29:12;1.27;;;1.00;;
48040;SDS011;33815;48.386;11.738;2022-10-16T09:31:39;1.70;;;1.05;;
48040;SDS011;33815;48.386;11.738;2022-10-16T09:34:04;1.13;;;1.02;;
48040;SDS011;33815;48.386;11.738;2022-10-16T09:36:42;4.70;;;1.10;;
48040;SDS011;33815;48.386;11.738;2022-10-16T09:39:10;1.20;;;1.10;;
48040;SDS011;33815;48.386;11.738;2022-10-16T09:41:39;1.02;;;1.02;;
48040;SDS011;33815;48.386;11.738;2022-10-16T09:46:47;2.00;;;1.20;;
48040;SDS011;33815;48.386;11.738;2022-10-16T09:49:22;0.87;;;0.87;;
48040;SDS011;33815;48.386;11.738;2022-10-16T09:51:49;1.00;;;1.00;;
48040;SDS011;33815;48.386;11.738;2022-10-16T09:54:17;3.20;;;1.63;;
48040;SDS011;33815;48.386;11.738;2022-10-16T09:56:44;1.92;;;1.55;;
48040;SDS011;33815;48.386;11.738;2022-10-16T09:59:18;1.40;;;1.10;;
48040;SDS011;33815;48.386;11.738;2022-10-16T10:01:48;1.77;;;0.90;;
48040;SDS011;33815;48.386;11.738;2022-10-16T10:04:16;1.92;;;1.30;;
48040;SDS011;33815;48.386;11.738;2022-10-16T10:06:45;1.38;;;1.20;;
48040;SDS011;33815;48.386;11.738;2022-10-16T10:14:58;1.10;;;1.00;;
48040;SDS011;33815;48.386;11.738;2022-10-16T10:19:30;1.17;;;1.10;;
48040;SDS011;33815;48.386;11.738;2022-10-16T10:22:15;1.30;;;1.20;;
48040;SDS011;33815;48.386;11.738;2022-10-16T10:30:44;0.82;;;0.73;;
48040;SDS011;33815;48.386;11.738;2022-10-16T10:36:34;0.88;;;0.88;;
48040;SDS011;33815;48.386;11.738;2022-10-16T10:42:00;1.30;;;1.20;;
48040;SDS011;33815;48.386;11.738;2022-10-16T10:50:24;4.70;;;3.30;;
48040;SDS011;33815;48.386;11.738;2022-10-16T10:55:40;1.20;;;1.10;;
48040;SDS011;33815;48.386;11.738;2022-10-16T10:59:16;1.02;;;1.00;;
48040;SDS011;33815;48.386;11.738;2022-10-16T11:01:27;1.08;;;0.98;;
48040;SDS011;33815;48.386;11.738;2022-10-16T11:06:47;1.27;;;1.20;;
48040;SDS011;33815;48.386;11.738;2022-10-16T11:09:18;1.00;;;0.90;;
48040;SDS011;33815;48.386;11.738;2022-10-16T11:14:55;1.15;;;1.05;;
48040;SDS011;33815;48.386;11.738;2022-10-16T11:17:34;5.45;;;0.80;;
48040;SDS011;33815;48.386;11.738;2022-10-16T11:20:16;1.85;;;0.90;;
48040;SDS011;33815;48.386;11.738;2022-10-16T11:23:18;1.45;;;1.13;;
48040;SDS011;33815;48.386;11.738;2022-10-16T11:25:58;2.95;;;1.25;;
48040;SDS011;33815;48.386;11.738;2022-10-16T11:33:39;0.85;;;0.85;;
48040;SDS011;33815;48.386;11.738;2022-10-16T11:36:23;1.20;;;1.10;;
48040;SDS011;33815;48.386;11.738;2022-10-16T11:38:57;1.92;;;1.13;;
48040;SDS011;33815;48.386;11.738;2022-10-16T11:47:25;1.20;;;1.10;;
48040;SDS011;33815;48.386;11.738;2022-10-16T11:49:58;0.80;;;0.80;;
48040;SDS011;33815;48.386;11.738;2022-10-16T11:55:13;1.20;;;1.10;;
48040;SDS011;33815;48.386;11.738;2022-10-16T11:57:44;1.95;;;1.10;;
48040;SDS011;33815;48.386;11.738;2022-10-16T12:08:13;0.98;;;0.93;;
48040;SDS011;33815;48.386;11.738;2022-10-16T12:10:41;2.60;;;0.90;;
48040;SDS011;33815;48.386;11.738;2022-10-16T12:18:37;0.80;;;0.80;;
48040;SDS011;33815;48.386;11.738;2022-10-16T12:21:08;1.40;;;0.80;;
48040;SDS011;33815;48.386;11.738;2022-10-16T12:23:38;1.05;;;0.52;;
48040;SDS011;33815;48.386;11.738;2022-10-16T12:26:12;2.35;;;0.80;;
48040;SDS011;33815;48.386;11.738;2022-10-16T12:28:38;2.55;;;0.65;;
48040;SDS011;33815;48.386;11.738;2022-10-16T12:31:07;0.65;;;0.57;;
48040;SDS011;33815;48.386;11.738;2022-10-16T12:33:40;0.77;;;0.70;;
48040;SDS011;33815;48.386;11.738;2022-10-16T12:36:29;0.40;;;0.30;;
48040;SDS011;33815;48.386;11.738;2022-10-16T12:38:57;1.17;;;1.00;;
48040;SDS011;33815;48.386;11.738;2022-10-16T12:41:33;0.93;;;0.57;;
48040;SDS011;33815;48.386;11.738;2022-10-16T12:44:00;0.40;;;0.40;;
48040;SDS011;33815;48.386;11.738;2022-10-16T12:51:38;1.10;;;0.40;;
48040;SDS011;33815;48.386;11.738;2022-10-16T12:54:05;0.77;;;0.40;;
48040;SDS011;33815;48.386;11.738;2022-10-16T12:56:49;1.85;;;0.60;;
48040;SDS011;33815;48.386;11.738;2022-10-16T13:02:26;1.95;;;0.60;;
48040;SDS011;33815;48.386;11.738;2022-10-16T13:10:26;0.75;;;0.75;;
48040;SDS011;33815;48.386;11.738;2022-10-16T13:30:12;1.13;;;0.40;;
48040;SDS011;33815;48.386;11.738;2022-10-16T13:32:44;1.60;;;0.60;;
48040;SDS011;33815;48.386;11.738;2022-10-16T13:35:18;0.38;;;0.38;;
48040;SDS011;33815;48.386;11.738;2022-10-16T13:37:51;0.60;;;0.50;;
48040;SDS011;33815;48.386;11.738;2022-10-16T13:40:23;0.63;;;0.63;;
48040;SDS011;33815;48.386;11.738;2022-10-16T13:42:50;0.57;;;0.55;;
48040;SDS011;33815;48.386;11.738;2022-10-16T13:45:21;1.05;;;0.30;;
48040;SDS011;33815;48.386;11.738;2022-10-16T13:50:28;0.40;;;0.40;;
48040;SDS011;33815;48.386;11.738;2022-10-16T13:53:03;1.20;;;0.55;;
48040;SDS011;33815;48.386;11.738;2022-10-16T13:55:32;0.35;;;0.35;;
48040;SDS011;33815;48.386;11.738;2022-10-16T13:58:07;0.50;;;0.50;;
48040;SDS011;33815;48.386;11.738;2022-10-16T14:00:37;0.45;;;0.40;;
48040;SDS011;33815;48.386;11.738;2022-10-16T14:03:07;0.25;;;0.25;;
48040;SDS011;33815;48.386;11.738;2022-10-16T14:05:51;0.30;;;0.30;;
48040;SDS011;33815;48.386;11.738;2022-10-16T14:08:18;1.23;;;0.47;;
48040;SDS011;33815;48.386;11.738;2022-10-16T14:10:47;3.85;;;0.52;;
48040;SDS011;33815;48.386;11.738;2022-10-16T14:13:19;1.30;;;0.68;;
48040;SDS011;33815;48.386;11.738;2022-10-16T14:15:51;0.30;;;0.30;;
48040;SDS011;33815;48.386;11.738;2022-10-16T14:18:18;0.50;;;0.50;;
48040;SDS011;33815;48.386;11.738;2022-10-16T14:20:46;0.52;;;0.30;;
48040;SDS011;33815;48.386;11.738;2022-10-16T14:23:33;0.50;;;0.50;;
48040;SDS011;33815;48.386;11.738;2022-10-16T14:26:06;2.05;;;0.52;;
48040;SDS011;33815;48.386;11.738;2022-10-16T14:28:40;0.35;;;0.30;;
48040;SDS011;33815;48.386;11.738;2022-10-16T14:31:53;0.40;;;0.40;;
48040;SDS011;33815;48.386;11.738;2022-10-16T14:33:52;0.98;;;0.80;;
48040;SDS011;33815;48.386;11.738;2022-10-16T14:36:17;0.50;;;0.50;;
48040;SDS011;33815;48.386;11.738;2022-10-16T14:38:56;0.57;;;0.50;;
48040;SDS011;33815;48.386;11.738;2022-10-16T14:41:26;0.50;;;0.50;;
48040;SDS011;33815;48.386;11.738;2022-10-16T14:43:52;0.63;;;0.47;;
48040;SDS011;33815;48.386;11.738;2022-10-16T14:46:21;0.90;;;0.60;;
48040;SDS011;33815;48.386;11.738;2022-10-16T14:48:56;0.20;;;0.20;;
48040;SDS011;33815;48.386;11.738;2022-10-16T14:51:26;0.77;;;0.50;;
48040;SDS011;33815;48.386;11.738;2022-10-16T14:53:52;0.50;;;0.47;;
48040;SDS011;33815;48.386;11.738;2022-10-16T14:56:24;0.80;;;0.75;;
48040;SDS011;33815;48.386;11.738;2022-10-16T14:58:54;0.50;;;0.50;;
48040;SDS011;33815;48.386;11.738;2022-10-16T15:01:20;1.25;;;0.40;;
48040;SDS011;33815;48.386;11.738;2022-10-16T15:03:46;0.60;;;0.60;;
48040;SDS011;33815;48.386;11.738;2022-10-16T15:06:12;0.68;;;0.68;;
48040;SDS011;33815;48.386;11.738;2022-10-16T15:08:39;0.52;;;0.52;;
48040;SDS011;33815;48.386;11.738;2022-10-16T15:11:04;1.13;;;0.70;;
48040;SDS011;33815;48.386;11.738;2022-10-16T15:13:32;1.10;;;0.52;;
48040;SDS011;33815;48.386;11.738;2022-10-16T15:15:57;5.93;;;1.73;;
48040;SDS011;33815;48.386;11.738;2022-10-16T15:18:23;2.10;;;0.50;;
48040;SDS011;33815;48.386;11.738;2022-10-16T15:20:49;0.50;;;0.50;;
48040;SDS011;33815;48.386;11.738;2022-10-16T15:23:15;0.90;;;0.60;;
48040;SDS011;33815;48.386;11.738;2022-10-16T15:25:46;2.90;;;0.60;;
48040;SDS011;33815;48.386;11.738;2022-10-16T15:28:13;1.00;;;0.60;;
48040;SDS011;33815;48.386;11.738;2022-10-16T15:30:40;1.92;;;1.55;;
48040;SDS011;33815;48.386;11.738;2022-10-16T15:33:08;3.20;;;1.88;;
48040;SDS011;33815;48.386;11.738;2022-10-16T15:35:38;2.20;;;1.45;;
48040;SDS011;33815;48.386;11.738;2022-10-16T15:38:03;2.67;;;1.83;;
48040;SDS011;33815;48.386;11.738;2022-10-16T15:40:28;4.67;;;1.10;;
48040;SDS011;33815;48.386;11.738;2022-10-16T15:42:54;1.02;;;0.85;;
48040;SDS011;33815;48.386;11.738;2022-10-16T15:45:19;0.40;;;0.40;;
48040;SDS011;33815;48.386;11.738;2022-10-16T15:47:45;0.68;;;0.63;;
48040;SDS011;33815;48.386;11.738;2022-10-16T15:50:11;1.50;;;1.10;;
48040;SDS011;33815;48.386;11.738;2022-10-16T15:52:39;1.35;;;0.90;;
48040;SDS011;33815;48.386;11.738;2022-10-16T15:55:08;12.15;;;1.70;;
48040;SDS011;33815;48.386;11.738;2022-10-16T15:57:35;1.13;;;0.75;;
48040;SDS011;33815;48.386;11.738;2022-10-16T16:00:04;1.20;;;0.70;;
48040;SDS011;33815;48.386;11.738;2022-10-16T16:02:33;0.73;;;0.65;;
48040;SDS011;33815;48.386;11.738;2022-10-16T16:04:58;2.05;;;0.60;;
48040;SDS011;33815;48.386;11.738;2022-10-16T16:07:23;5.03;;;0.75;;
48040;SDS011;33815;48.386;11.738;2022-10-16T16:09:49;0.73;;;0.73;;
48040;SDS011;33815;48.386;11.738;2022-10-16T16:12:14;1.17;;;1.08;;
48040;SDS011;33815;48.386;11.738;2022-10-16T16:14:39;4.03;;;1.50;;
48040;SDS011;33815;48.386;11.738;2022-10-16T16:17:05;4.50;;;1.67;;
48040;SDS011;33815;48.386;11.738;2022-10-16T16:19:30;9.38;;;5.18;;
48040;SDS011;33815;48.386;11.738;2022-10-16T16:21:56;4.47;;;2.20;;
48040;SDS011;33815;48.386;11.738;2022-10-16T16:24:22;2.75;;;1.85;;
48040;SDS011;33815;48.386;11.738;2022-10-16T16:26:47;6.63;;;1.58;;
48040;SDS011;33815;48.386;11.738;2022-10-16T16:29:13;6.85;;;1.30;;
48040;SDS011;33815;48.386;11.738;2022-10-16T16:31:40;2.08;;;1.40;;
48040;SDS011;33815;48.386;11.738;2022-10-16T16:34:05;4.93;;;2.38;;
48040;SDS011;33815;48.386;11.738;2022-10-16T16:36:31;1.42;;;1.10;;
48040;SDS011;33815;48.386;11.738;2022-10-16T16:38:57;3.33;;;1.35;;
48040;SDS011;33815;48.386;11.738;2022-10-16T16:41:23;2.47;;;1.60;;
48040;SDS011;33815;48.386;11.738;2022-10-16T16:43:51;3.30;;;1.92;;
48040;SDS011;33815;48.386;11.738;2022-10-16T16:46:17;3.25;;;1.92;;